Time;durP1;ratioP1;P1;durP2;ratioP2;P2;SDS_P1;SDS_P2;PMS_P1;PMS_P2;Temp;Humidity;BMP_temperature;BMP_pressure;BME280_temperature;BME280_humidity;BME280_pressure;Samples;Min_cycle;Max_cycle;Signal;HPM_P1;HPM_P2
2023/09/08 00:02:11;;;;;;;8.68;6.97;;;;;;;19.98;100.00;101647.75;5015202;28;20382;-86
2023/09/08 00:04:36;;;;;;;7.13;5.65;;;;;;;20.00;100.00;101656.66;5008549;28;20099;-87
2023/09/08 00:07:02;;;;;;;8.38;6.03;;;;;;;19.94;100.00;101649.03;5026131;28;20036;-86
2023/09/08 00:09:27;;;;;;;9.18;6.60;;;;;;;19.84;100.00;101642.25;5029137;28;20033;-87
2023/09/08 00:11:54;;;;;;;8.45;6.05;;;;;;;19.94;100.00;101661.19;5019120;28;20646;-87
2023/09/08 00:14:20;;;;;;;7.65;6.10;;;;;;;19.85;100.00;101658.06;5017072;28;21439;-87
2023/09/08 00:16:45;;;;;;;7.70;6.05;;;;;;;19.81;100.00;101654.47;5021492;28;20029;-87
2023/09/08 00:19:11;;;;;;;7.97;5.78;;;;;;;19.73;100.00;101642.34;5021804;28;20029;-86
2023/09/08 00:21:37;;;;;;;7.90;5.80;;;;;;;19.67;100.00;101633.47;5026133;28;20051;-86
2023/09/08 00:24:03;;;;;;;8.35;6.22;;;;;;;19.77;100.00;101653.69;5001914;28;20029;-86
2023/09/08 00:26:29;;;;;;;8.57;6.72;;;;;;;19.73;100.00;101652.91;5021191;28;20108;-88
2023/09/08 00:28:54;;;;;;;8.18;6.25;;;;;;;19.69;100.00;101656.59;5010452;28;20160;-86
2023/09/08 00:31:20;;;;;;;8.02;6.05;;;;;;;19.68;100.00;101652.13;5010227;28;20489;-87
2023/09/08 00:33:45;;;;;;;8.20;6.22;;;;;;;19.54;100.00;101635.22;5026191;28;20490;-87
2023/09/08 00:36:11;;;;;;;8.13;6.43;;;;;;;19.60;100.00;101644.09;5025106;28;20040;-87
2023/09/08 00:38:36;;;;;;;9.57;6.80;;;;;;;19.59;100.00;101648.19;5023320;28;20025;-87
2023/09/08 00:41:01;;;;;;;8.65;6.20;;;;;;;19.55;100.00;101636.84;5013050;28;20022;-86
2023/09/08 00:43:27;;;;;;;7.28;5.80;;;;;;;19.53;100.00;101645.00;5004386;28;20029;-87
2023/09/08 00:45:54;;;;;;;8.77;6.80;;;;;;;19.43;100.00;101645.91;5002218;28;20439;-87
2023/09/08 00:48:20;;;;;;;10.15;6.93;;;;;;;19.44;100.00;101641.84;5002691;28;20036;-86
2023/09/08 00:50:46;;;;;;;9.30;7.00;;;;;;;19.47;100.00;101649.53;5024585;28;20029;-87
2023/09/08 00:53:12;;;;;;;9.80;6.75;;;;;;;19.46;100.00;101645.88;5007991;28;20044;-90
2023/09/08 00:55:40;;;;;;;10.98;7.97;;;;;;;19.44;100.00;101645.50;5008556;28;20049;-91
2023/09/08 00:58:05;;;;;;;7.22;5.95;;;;;;;19.41;100.00;101642.69;5009689;28;20189;-90
2023/09/08 01:00:32;;;;;;;9.80;7.22;;;;;;;19.36;100.00;101646.00;5013477;28;20374;-91
2023/09/08 01:02:58;;;;;;;11.25;7.32;;;;;;;19.39;100.00;101645.13;5019335;28;20033;-91
2023/09/08 01:05:24;;;;;;;6.95;6.03;;;;;;;19.28;100.00;101640.38;5002587;28;20033;-91
2023/09/08 01:07:50;;;;;;;8.90;7.10;;;;;;;19.27;100.00;101627.41;5004331;28;20032;-90
2023/09/08 01:10:16;;;;;;;9.82;7.18;;;;;;;19.29;100.00;101635.50;5010254;28;20057;-91
2023/09/08 01:12:42;;;;;;;11.23;7.28;;;;;;;19.23;100.00;101629.47;5008363;28;20044;-91
2023/09/08 01:15:07;;;;;;;9.65;6.78;;;;;;;19.19;100.00;101617.34;5025477;28;20393;-90
2023/09/08 01:17:34;;;;;;;11.52;7.43;;;;;;;19.23;100.00;101623.00;5001285;28;20033;-92
2023/09/08 01:20:05;;;;;;;10.38;7.32;;;;;;;19.14;100.00;101623.47;5027298;28;20071;-89
2023/09/08 01:22:57;;;;;;;8.37;6.47;;;;;;;19.20;100.00;101621.78;5010216;28;20036;-91
2023/09/08 01:25:25;;;;;;;9.13;7.03;;;;;;;19.13;100.00;101618.22;5013100;28;20083;-91
2023/09/08 01:27:52;;;;;;;10.43;7.18;;;;;;;19.13;100.00;101621.88;5026445;28;20071;-92
2023/09/08 01:30:19;;;;;;;10.90;8.20;;;;;;;19.03;100.00;101611.41;5022772;28;20029;-91
2023/09/08 01:32:45;;;;;;;12.35;7.00;;;;;;;18.98;100.00;101612.69;5007872;28;20080;-91
2023/09/08 01:35:11;;;;;;;9.40;6.55;;;;;;;19.10;100.00;101625.56;5023726;28;20091;-91
2023/09/08 01:37:41;;;;;;;9.40;7.25;;;;;;;19.10;100.00;101628.41;5010010;28;20029;-91
2023/09/08 01:40:07;;;;;;;9.68;7.00;;;;;;;19.03;100.00;101617.09;5026812;28;20021;-91
2023/09/08 01:42:33;;;;;;;8.90;6.78;;;;;;;19.00;100.00;101623.63;5028550;28;20477;-92
2023/09/08 01:44:58;;;;;;;7.07;6.25;;;;;;;18.94;100.00;101613.94;5019890;28;20041;-92
2023/09/08 01:47:24;;;;;;;9.18;6.18;;;;;;;18.99;100.00;101625.63;5025336;28;20120;-92
2023/09/08 01:49:49;;;;;;;8.35;6.22;;;;;;;18.85;100.00;101618.06;5015125;28;20397;-91
2023/09/08 01:52:15;;;;;;;7.60;5.97;;;;;;;18.94;100.00;101623.25;5015495;28;20029;-93
2023/09/08 01:54:40;;;;;;;8.98;6.95;;;;;;;18.90;100.00;101625.31;5012739;28;20113;-90
2023/09/08 01:57:05;;;;;;;9.75;7.50;;;;;;;18.75;100.00;101601.91;5008873;28;20539;-91
2023/09/08 01:59:31;;;;;;;11.25;6.57;;;;;;;18.92;100.00;101627.72;5030831;28;20430;-91
2023/09/08 02:01:56;;;;;;;8.82;6.25;;;;;;;18.89;100.00;101630.19;5010670;28;20025;-91
2023/09/08 02:04:22;;;;;;;9.27;6.43;;;;;;;18.81;100.00;101622.16;5023510;28;20052;-91
2023/09/08 02:06:47;;;;;;;8.98;6.82;;;;;;;18.78;100.00;101629.44;5014655;28;20029;-92
2023/09/08 02:09:14;;;;;;;11.45;7.20;;;;;;;18.81;100.00;101625.78;5011218;28;20668;-91
2023/09/08 02:11:40;;;;;;;9.57;7.13;;;;;;;18.81;100.00;101617.28;5027624;28;20119;-90
2023/09/08 02:14:05;;;;;;;9.35;6.47;;;;;;;18.75;100.00;101623.78;5011369;28;20421;-90
2023/09/08 02:16:31;;;;;;;9.30;6.55;;;;;;;18.75;100.00;101623.78;5028438;28;20034;-91
2023/09/08 02:18:56;;;;;;;9.05;7.20;;;;;;;18.77;100.00;101627.00;5011931;28;20464;-92
2023/09/08 02:21:21;;;;;;;8.55;6.38;;;;;;;18.71;100.00;101615.28;5011840;28;20056;-92
2023/09/08 02:23:47;;;;;;;8.98;6.55;;;;;;;18.70;100.00;101622.19;5033250;28;20026;-91
2023/09/08 02:26:12;;;;;;;8.88;6.55;;;;;;;18.72;100.00;101618.94;5012527;28;20044;-91
2023/09/08 02:28:38;;;;;;;10.80;6.72;;;;;;;18.69;100.00;101620.56;5010787;28;20041;-91
2023/09/08 02:31:03;;;;;;;11.82;7.05;;;;;;;18.65;100.00;101611.28;5008913;28;20038;-92
2023/09/08 02:33:28;;;;;;;9.02;6.55;;;;;;;18.68;100.00;101616.13;5030565;28;20067;-91
2023/09/08 02:35:54;;;;;;;9.40;6.90;;;;;;;18.59;100.00;101601.59;5013136;28;20087;-94
2023/09/08 02:38:19;;;;;;;11.30;7.20;;;;;;;18.56;100.00;101616.63;5012096;28;20036;-91
2023/09/08 02:40:45;;;;;;;8.88;6.55;;;;;;;18.56;100.00;101613.78;5025487;28;20064;-90
2023/09/08 02:43:10;;;;;;;10.50;6.63;;;;;;;18.59;100.00;101616.59;5009502;28;20053;-93
2023/09/08 02:45:36;;;;;;;13.65;7.93;;;;;;;18.54;100.00;101608.53;5016484;28;20049;-91
2023/09/08 02:48:01;;;;;;;9.00;6.97;;;;;;;18.50;100.00;101619.09;5014325;28;20044;-91
2023/09/08 02:50:27;;;;;;;10.07;8.45;;;;;;;18.43;100.00;101602.94;5020604;28;20033;-91
2023/09/08 02:52:52;;;;;;;10.40;7.32;;;;;;;18.52;100.00;101618.69;5014092;28;20064;-93
2023/09/08 02:55:17;;;;;;;10.27;7.75;;;;;;;18.47;100.00;101612.22;5010333;28;20030;-92
2023/09/08 02:57:43;;;;;;;9.77;6.53;;;;;;;18.47;100.00;101617.09;5007185;28;20160;-93
2023/09/08 03:00:08;;;;;;;10.25;7.25;;;;;;;18.41;100.00;101616.72;5006748;28;20053;-93
2023/09/08 03:02:34;;;;;;;9.80;6.80;;;;;;;18.33;100.00;101603.00;5027309;28;20030;-92
2023/09/08 03:05:00;;;;;;;10.10;7.20;;;;;;;18.41;100.00;101615.91;5009241;28;20480;-87
2023/09/08 03:07:27;;;;;;;10.60;7.47;;;;;;;18.40;100.00;101608.63;5012628;28;20032;-87
2023/09/08 03:09:53;;;;;;;9.15;7.32;;;;;;;18.33;100.00;101603.00;5006755;28;20088;-88
2023/09/08 03:12:18;;;;;;;11.00;8.30;;;;;;;18.34;100.00;101611.09;5007399;28;20524;-88
2023/09/08 03:14:44;;;;;;;10.40;7.38;;;;;;;18.37;100.00;101609.47;4997696;28;20050;-87
2023/09/08 03:17:10;;;;;;;11.07;7.68;;;;;;;18.33;100.00;101603.81;4990254;28;20400;-87
2023/09/08 03:19:35;;;;;;;9.00;7.13;;;;;;;18.34;100.00;101618.78;4989462;28;20034;-87
2023/09/08 03:22:01;;;;;;;10.50;7.68;;;;;;;18.28;100.00;101607.88;5009991;28;20038;-88
2023/09/08 03:24:26;;;;;;;11.55;8.40;;;;;;;18.21;100.00;101602.25;4989754;28;20033;-87
2023/09/08 03:26:51;;;;;;;11.93;7.00;;;;;;;18.25;100.00;101610.72;4984727;28;20034;-87
2023/09/08 03:29:17;;;;;;;9.63;6.80;;;;;;;18.27;100.00;101608.28;4989256;28;20114;-86
2023/09/08 03:31:43;;;;;;;9.82;7.45;;;;;;;18.19;100.00;101603.88;4986291;28;20415;-87
2023/09/08 03:34:08;;;;;;;9.93;6.93;;;;;;;18.25;100.00;101596.56;4983153;28;20067;-86
2023/09/08 03:36:36;;;;;;;10.00;7.97;;;;;;;18.12;100.00;101582.06;4988599;28;20035;-87
2023/09/08 03:39:03;;;;;;;10.88;7.47;;;;;;;18.20;100.00;101594.19;4990458;28;20018;-87
2023/09/08 03:41:28;;;;;;;11.95;7.45;;;;;;;18.14;100.00;101585.28;4994588;28;20508;-86
2023/09/08 03:43:54;;;;;;;9.93;7.00;;;;;;;18.10;100.00;101584.50;4981453;28;20034;-86
2023/09/08 03:46:19;;;;;;;10.40;7.07;;;;;;;18.19;100.00;101599.00;4991730;28;20557;-87
2023/09/08 03:48:44;;;;;;;10.07;7.97;;;;;;;18.22;100.00;101600.25;4984732;28;20089;-86
2023/09/08 03:51:10;;;;;;;11.02;7.47;;;;;;;18.24;100.00;101600.63;5004229;28;20136;-87
2023/09/08 03:53:35;;;;;;;10.88;7.78;;;;;;;18.21;100.00;101595.78;5004617;28;20053;-86
2023/09/08 03:56:01;;;;;;;10.77;7.97;;;;;;;18.20;100.00;101599.84;4983974;28;20030;-86
2023/09/08 03:58:26;;;;;;;9.35;8.23;;;;;;;18.24;100.00;101600.63;4988927;28;20078;-87
2023/09/08 04:00:51;;;;;;;11.63;7.88;;;;;;;18.16;100.00;101590.56;5008034;28;20479;-88
2023/09/08 04:03:17;;;;;;;11.48;7.28;;;;;;;18.09;100.00;101594.25;5003214;28;20046;-87
2023/09/08 04:05:42;;;;;;;11.43;8.27;;;;;;;18.02;100.00;101578.06;4991128;28;20030;-87
2023/09/08 04:08:08;;;;;;;10.43;7.65;;;;;;;18.14;100.00;101596.63;4989348;28;20023;-86
2023/09/08 04:10:33;;;;;;;11.25;7.38;;;;;;;18.14;100.00;101599.47;4984599;28;20041;-87
2023/09/08 04:12:58;;;;;;;16.10;9.77;;;;;;;18.11;100.00;101596.63;5001372;28;20572;-87
2023/09/08 04:15:24;;;;;;;10.35;7.63;;;;;;;18.08;100.00;101593.41;4969791;28;20045;-87
2023/09/08 04:17:49;;;;;;;11.05;8.25;;;;;;;18.07;100.00;101583.31;4980381;28;20042;-87
2023/09/08 04:20:15;;;;;;;11.63;7.47;;;;;;;18.15;100.00;101591.75;5000160;28;20034;-87
2023/09/08 04:22:40;;;;;;;11.85;7.28;;;;;;;18.12;100.00;101598.25;4984819;28;20023;-87
2023/09/08 04:25:06;;;;;;;11.68;7.32;;;;;;;18.15;100.00;101603.09;5000181;28;20030;-87
2023/09/08 04:27:32;;;;;;;11.13;8.20;;;;;;;18.06;100.00;101590.19;4985917;28;20026;-87
2023/09/08 04:29:59;;;;;;;10.38;6.93;;;;;;;18.10;100.00;101600.72;4985186;28;20034;-87
2023/09/08 04:32:24;;;;;;;12.02;8.52;;;;;;;18.07;100.00;101603.13;4986735;28;20018;-87
2023/09/08 04:34:50;;;;;;;9.82;7.70;;;;;;;18.01;100.00;101609.66;4987909;28;20041;-87
2023/09/08 04:37:15;;;;;;;11.18;7.35;;;;;;;18.04;100.00;101609.63;4987965;28;20037;-86
2023/09/08 04:39:41;;;;;;;11.75;8.05;;;;;;;18.01;100.00;101604.00;4986858;28;20029;-87
2023/09/08 04:42:06;;;;;;;10.68;7.85;;;;;;;17.95;100.00;101594.31;4985905;28;20406;-87
2023/09/08 04:44:32;;;;;;;11.65;7.40;;;;;;;17.87;100.00;101579.34;5002932;28;20031;-87
2023/09/08 04:46:57;;;;;;;11.82;8.18;;;;;;;17.97;100.00;101603.19;4986162;28;20242;-87
2023/09/08 04:49:22;;;;;;;12.60;9.25;;;;;;;17.93;100.00;101602.41;4998105;28;20033;-87
2023/09/08 04:51:48;;;;;;;8.95;6.43;;;;;;;17.91;100.00;101602.81;5000144;28;20057;-87
2023/09/08 04:54:13;;;;;;;15.73;8.57;;;;;;;17.84;100.00;101597.97;4998410;28;20553;-87
2023/09/08 04:56:40;;;;;;;10.52;7.70;;;;;;;17.88;100.00;101600.81;4986604;28;20033;-86
2023/09/08 04:59:05;;;;;;;9.65;7.30;;;;;;;17.91;100.00;101605.63;5003530;28;20097;-86
2023/09/08 05:01:32;;;;;;;11.98;8.98;;;;;;;17.91;100.00;101602.00;5001395;28;20019;-86
2023/09/08 05:04:00;;;;;;;12.70;8.07;;;;;;;17.82;100.00;101586.25;4991571;28;20037;-87
2023/09/08 05:06:26;;;;;;;9.77;7.25;;;;;;;17.84;100.00;101597.19;4999405;28;20026;-87
2023/09/08 05:08:51;;;;;;;12.63;7.80;;;;;;;17.81;100.00;101586.63;4980450;28;20453;-87
2023/09/08 05:11:18;;;;;;;12.35;8.55;;;;;;;17.83;100.00;101592.72;4996525;28;20035;-87
2023/09/08 05:13:44;;;;;;;9.77;7.90;;;;;;;17.82;100.00;101588.25;4998353;28;20026;-86
2023/09/08 05:16:12;;;;;;;9.95;7.97;;;;;;;17.85;100.00;101590.28;5012054;28;20132;-87
2023/09/08 05:18:41;;;;;;;12.05;7.60;;;;;;;17.85;100.00;101595.94;5004948;28;20032;-86
2023/09/08 05:21:07;;;;;;;10.18;7.50;;;;;;;17.88;100.00;101595.16;5024648;28;20191;-86
2023/09/08 05:23:33;;;;;;;12.85;8.00;;;;;;;17.88;100.00;101593.13;5005932;28;20061;-87
2023/09/08 05:25:59;;;;;;;10.05;7.47;;;;;;;17.76;100.00;101579.38;5024817;28;20084;-87
2023/09/08 05:28:24;;;;;;;10.25;7.35;;;;;;;17.83;100.00;101587.06;5021456;28;20033;-86
2023/09/08 05:30:51;;;;;;;11.55;7.90;;;;;;;17.90;100.00;101597.53;5002990;28;20033;-87
2023/09/08 05:33:16;;;;;;;13.05;8.13;;;;;;;17.88;100.00;101604.44;5006498;28;20496;-86
2023/09/08 05:35:42;;;;;;;12.20;7.68;;;;;;;17.85;100.00;101601.63;5007378;28;20029;-86
2023/09/08 05:38:08;;;;;;;12.05;7.78;;;;;;;17.90;100.00;101604.03;5007712;28;20033;-86
2023/09/08 05:40:35;;;;;;;11.77;8.32;;;;;;;17.88;100.00;101606.47;5020182;28;20075;-87
2023/09/08 05:43:00;;;;;;;10.88;7.80;;;;;;;17.81;100.00;101604.41;5007734;28;20565;-86
2023/09/08 05:45:25;;;;;;;12.60;7.30;;;;;;;17.86;100.00;101608.91;5005950;28;20022;-86
2023/09/08 05:47:54;;;;;;;11.52;8.18;;;;;;;17.80;100.00;101597.16;5000688;28;20128;-87
2023/09/08 05:50:19;;;;;;;9.48;7.68;;;;;;;17.84;100.00;101594.34;5002380;28;20412;-86
2023/09/08 05:52:45;;;;;;;13.85;8.68;;;;;;;17.84;100.00;101597.19;5027823;28;20025;-87
2023/09/08 05:55:10;;;;;;;11.52;7.88;;;;;;;17.84;100.00;101600.00;5003621;28;20490;-86
2023/09/08 05:57:36;;;;;;;11.00;7.43;;;;;;;17.84;100.00;101600.81;5005353;28;20033;-86
2023/09/08 06:00:05;;;;;;;8.63;7.63;;;;;;;17.76;100.00;101589.91;5023132;28;20060;-87
2023/09/08 06:02:30;;;;;;;11.38;8.63;;;;;;;17.77;100.00;101586.66;5022388;28;20084;-86
2023/09/08 06:04:56;;;;;;;11.40;7.80;;;;;;;17.79;100.00;101586.22;5016362;28;20151;-86
2023/09/08 06:07:22;;;;;;;11.13;8.55;;;;;;;17.80;100.00;101607.69;5000318;28;20475;-86
2023/09/08 06:09:47;;;;;;;11.48;7.85;;;;;;;17.81;100.00;101601.59;5019090;28;20036;-87
2023/09/08 06:12:12;;;;;;;10.95;7.97;;;;;;;17.85;100.00;101604.44;5003631;28;20496;-87
2023/09/08 06:14:38;;;;;;;14.95;9.38;;;;;;;18.02;100.00;101603.56;5003684;28;20140;-84
2023/09/08 06:17:03;;;;;;;21.20;10.13;;;;;;;17.99;100.00;101606.44;5014470;28;20025;-83
2023/09/08 06:19:29;;;;;;;13.02;9.48;;;;;;;18.01;100.00;101610.44;5001746;28;20033;-83
2023/09/08 06:21:54;;;;;;;15.55;9.55;;;;;;;18.01;100.00;101620.97;5021840;28;20478;-82
2023/09/08 06:24:19;;;;;;;13.27;9.23;;;;;;;17.95;100.00;101612.09;5016227;28;20030;-83
2023/09/08 06:26:45;;;;;;;15.88;9.55;;;;;;;18.01;100.00;101616.13;5020742;28;20040;-83
2023/09/08 06:29:10;;;;;;;14.30;9.52;;;;;;;17.92;100.00;101614.94;5010929;28;20112;-83
2023/09/08 06:31:35;;;;;;;17.08;8.55;;;;;;;17.94;100.00;101616.16;5005403;28;20034;-83
2023/09/08 06:34:01;;;;;;;18.55;12.07;;;;;;;17.93;100.00;101625.88;5006570;28;20057;-83
2023/09/08 06:36:26;;;;;;;9.60;7.28;;;;;;;18.35;100.00;101615.53;5014555;28;20034;-81
2023/09/08 06:38:52;;;;;;;20.52;13.32;;;;;;;18.05;100.00;101619.75;5007445;28;20088;-81
2023/09/08 06:41:17;;;;;;;14.77;10.40;;;;;;;18.01;100.00;101616.13;5007201;28;20487;-81
2023/09/08 06:43:44;;;;;;;17.83;11.32;;;;;;;17.97;100.00;101621.00;5007080;28;20030;-84
2023/09/08 06:46:09;;;;;;;21.80;11.93;;;;;;;17.99;100.00;101621.38;5002146;28;20483;-83
2023/09/08 06:48:35;;;;;;;15.35;11.00;;;;;;;17.94;100.00;101613.34;5018066;28;20037;-83
2023/09/08 06:51:00;;;;;;;18.77;10.88;;;;;;;18.00;100.00;101614.50;4999918;28;20025;-84
2023/09/08 06:53:26;;;;;;;18.52;11.52;;;;;;;18.01;100.00;101616.13;5001941;28;20077;-80
2023/09/08 06:55:51;;;;;;;18.23;12.05;;;;;;;18.10;100.00;101620.53;5002995;28;20120;-80
2023/09/08 06:58:16;;;;;;;16.42;11.75;;;;;;;18.08;100.00;101621.75;5010971;28;20034;-81
2023/09/08 07:00:42;;;;;;;17.98;10.88;;;;;;;18.19;100.00;101615.22;5001148;28;20045;-80
2023/09/08 07:03:09;;;;;;;22.95;12.15;;;;;;;18.30;100.00;101615.97;5007380;28;20037;-81
2023/09/08 07:05:35;;;;;;;15.68;11.82;;;;;;;18.37;100.00;101615.94;5009750;28;20375;-84
2023/09/08 07:08:01;;;;;;;17.40;10.75;;;;;;;18.37;100.00;101624.44;5011123;28;20061;-84
2023/09/08 07:10:26;;;;;;;20.40;12.48;;;;;;;18.53;100.00;101623.09;5006653;28;20066;-83
2023/09/08 07:12:51;;;;;;;15.82;11.05;;;;;;;18.62;100.00;101626.31;5010655;28;20069;-84
2023/09/08 07:15:17;;;;;;;17.70;11.55;;;;;;;18.70;100.00;101630.72;5003242;28;20066;-84
2023/09/08 07:17:42;;;;;;;15.85;11.10;;;;;;;18.78;100.00;101618.09;5001968;28;20681;-84
2023/09/08 07:20:08;;;;;;;14.65;11.32;;;;;;;18.95;100.00;101622.00;5008036;28;20038;-84
2023/09/08 07:22:34;;;;;;;16.23;11.02;;;;;;;19.04;100.00;101622.34;5008471;28;20029;-83
2023/09/08 07:24:59;;;;;;;23.77;13.13;;;;;;;19.02;100.00;101624.81;5001584;28;20040;-84
2023/09/08 07:27:24;;;;;;;17.25;11.05;;;;;;;19.17;100.00;101630.34;5009260;28;20042;-84
2023/09/08 07:29:50;;;;;;;17.85;11.13;;;;;;;19.13;100.00;101618.22;4999761;28;20038;-84
2023/09/08 07:32:18;;;;;;;16.27;10.98;;;;;;;19.32;100.00;101633.84;4997677;28;20585;-84
2023/09/08 07:34:44;;;;;;;18.38;11.73;;;;;;;19.35;100.00;101633.00;5005482;28;20492;-83
2023/09/08 07:37:09;;;;;;;17.73;11.02;;;;;;;19.44;100.00;101630.50;5008750;28;20041;-84
2023/09/08 07:39:35;;;;;;;18.65;11.25;;;;;;;19.25;100.00;101617.72;5023648;28;20478;-84
2023/09/08 07:42:01;;;;;;;18.90;12.52;;;;;;;19.19;100.00;101625.88;5009222;28;20026;-83
2023/09/08 07:44:27;;;;;;;18.77;11.70;;;;;;;19.59;100.00;101634.78;5005563;28;20034;-84
2023/09/08 07:46:52;;;;;;;15.20;11.23;;;;;;;19.68;100.00;101632.25;5003501;28;20033;-84
2023/09/08 07:49:21;;;;;;;17.42;12.02;;;;;;;19.77;100.00;101630.97;5002482;28;20029;-84
2023/09/08 07:51:47;;;;;;;22.08;11.30;;;;;;;19.77;100.00;101634.59;5008108;28;20116;-84
2023/09/08 07:54:13;;;;;;;15.90;11.20;;;;;;;19.94;100.00;101631.97;5009335;28;20112;-85
2023/09/08 07:56:40;;;;;;;17.48;10.55;;;;;;;20.13;100.00;101637.00;5002268;28;20050;-84
2023/09/08 07:59:06;;;;;;;17.73;11.27;;;;;;;20.27;100.00;101636.00;5008472;28;20029;-85
2023/09/08 08:01:32;;;;;;;14.95;11.43;;;;;;;20.20;100.00;101631.25;5000238;28;20121;-84
2023/09/08 08:03:57;;;;;;;14.00;10.13;;;;;;;20.34;100.00;101629.41;5010208;28;20103;-83
2023/09/08 08:06:23;;;;;;;15.57;10.27;;;;;;;20.44;100.00;101634.94;5002126;28;20389;-81
2023/09/08 08:08:48;;;;;;;15.65;9.93;;;;;;;20.41;100.00;101635.03;4997434;28;20120;-81
2023/09/08 08:11:17;;;;;;;17.42;10.43;;;;;;;20.68;100.00;101637.88;5006444;28;20095;-82
2023/09/08 08:13:43;;;;;;;14.80;9.85;;;;;;;20.60;100.00;101636.41;5006649;28;20125;-81
2023/09/08 08:16:08;;;;;;;15.10;9.80;;;;;;;20.68;100.00;101635.03;5000694;28;20145;-80
2023/09/08 08:18:33;;;;;;;16.85;10.93;;;;;;;20.81;100.00;101630.38;4990921;28;20033;-80
2023/09/08 08:21:00;;;;;;;16.58;9.77;;;;;;;20.94;100.00;101639.09;4986123;28;20479;-81
2023/09/08 08:23:26;;;;;;;15.75;10.57;;;;;;;21.30;100.00;101639.28;4985194;28;20078;-81
2023/09/08 08:25:51;;;;;;;16.40;11.13;;;;;;;21.17;100.00;101640.38;4985593;28;20042;-81
2023/09/08 08:28:16;;;;;;;17.70;10.85;;;;;;;21.36;100.00;101642.44;4990342;28;20045;-81
2023/09/08 08:30:42;;;;;;;19.02;11.02;;;;;;;21.39;100.00;101638.72;4982903;28;20077;-80
2023/09/08 08:33:07;;;;;;;16.15;10.80;;;;;;;21.55;99.53;101638.06;4987792;28;20037;-81
2023/09/08 08:35:33;;;;;;;13.63;9.45;;;;;;;21.76;99.87;101638.84;4988275;28;20022;-82
2023/09/08 08:37:59;;;;;;;13.75;9.32;;;;;;;21.60;100.00;101646.09;4986444;28;20620;-80
2023/09/08 08:40:26;;;;;;;12.60;9.85;;;;;;;21.59;100.00;101638.81;4984231;28;20510;-80
2023/09/08 08:43:01;;;;;;;15.35;9.60;;;;;;;21.67;100.00;101645.13;4986009;28;20030;-80
2023/09/08 08:45:28;;;;;;;15.82;9.95;;;;;;;21.77;99.67;101654.72;4997869;28;20026;-80
2023/09/08 08:47:56;;;;;;;13.93;9.95;;;;;;;21.96;98.93;101645.38;4990065;28;20045;-82
2023/09/08 08:50:21;;;;;;;13.75;9.60;;;;;;;21.98;98.65;101648.59;4986095;28;20037;-80
2023/09/08 08:52:47;;;;;;;27.70;14.43;;;;;;;22.07;100.00;101645.97;4986420;28;20585;-81
2023/09/08 08:55:15;;;;;;;16.65;9.68;;;;;;;22.07;99.25;101637.41;4982107;28;20030;-81
2023/09/08 08:57:41;;;;;;;21.02;10.77;;;;;;;22.32;95.54;101647.50;4986824;28;20027;-81
2023/09/08 09:00:10;;;;;;;17.38;10.50;;;;;;;22.42;95.78;101640.75;4988468;28;20541;-81
2023/09/08 09:02:41;;;;;;;13.95;9.00;;;;;;;22.76;94.35;101650.16;4987576;28;20479;-80
2023/09/08 09:05:11;;;;;;;13.40;9.00;;;;;;;22.85;94.71;101645.47;4989330;28;20374;-80
2023/09/08 09:07:37;;;;;;;15.48;10.60;;;;;;;22.88;94.23;101643.75;4984378;28;20100;-81
2023/09/08 09:10:04;;;;;;;14.63;9.80;;;;;;;22.65;95.10;101644.72;4984430;28;20530;-81
2023/09/08 09:12:29;;;;;;;15.30;9.93;;;;;;;23.13;93.58;101640.31;4985851;28;20180;-80
2023/09/08 09:14:59;;;;;;;14.52;10.18;;;;;;;22.90;93.47;101633.50;5006794;28;20050;-81
2023/09/08 09:17:25;;;;;;;12.15;8.10;;;;;;;23.03;93.21;101641.38;5005309;28;20071;-81
2023/09/08 09:19:50;;;;;;;17.00;8.48;;;;;;;23.12;92.85;101635.84;5025574;28;20045;-81
2023/09/08 09:22:21;;;;;;;18.02;9.73;;;;;;;23.30;92.09;101635.38;5022177;28;20026;-80
2023/09/08 09:24:48;;;;;;;13.70;9.45;;;;;;;23.38;93.16;101638.81;5008133;28;20033;-81
2023/09/08 09:27:13;;;;;;;14.30;9.02;;;;;;;23.51;91.58;101636.84;5026345;28;20041;-81
2023/09/08 09:29:47;;;;;;;15.23;8.40;;;;;;;23.64;90.87;101642.63;5027265;28;20048;-81
2023/09/08 09:32:13;;;;;;;16.05;9.57;;;;;;;23.60;88.19;101644.78;4984976;28;20259;-81
2023/09/08 09:34:49;;;;;;;10.30;8.18;;;;;;;23.50;88.84;101640.94;5023273;28;20545;-80
2023/09/08 09:37:15;;;;;;;14.55;9.38;;;;;;;23.72;89.73;101638.31;5011037;28;20048;-81
2023/09/08 09:39:41;;;;;;;13.70;8.55;;;;;;;23.61;90.73;101632.06;5011300;28;20485;-81
2023/09/08 09:42:06;;;;;;;11.30;8.35;;;;;;;23.93;90.51;101642.66;5008323;28;20134;-81
2023/09/08 09:44:32;;;;;;;15.32;8.95;;;;;;;23.98;89.38;101636.34;5009831;28;20025;-80
2023/09/08 09:46:57;;;;;;;12.98;8.32;;;;;;;24.11;89.99;101640.03;5025814;28;20112;-80
2023/09/08 09:49:26;;;;;;;14.43;8.95;;;;;;;24.13;90.88;101643.25;5025944;28;20029;-80
2023/09/08 09:51:53;;;;;;;15.45;8.75;;;;;;;24.43;88.47;101638.25;5000872;28;20030;-82
2023/09/08 09:54:22;;;;;;;12.75;8.02;;;;;;;24.75;85.63;101636.44;5021187;28;20040;-81
2023/09/08 09:56:47;;;;;;;10.45;7.20;;;;;;;24.71;87.30;101627.22;5004063;28;20389;-80
2023/09/08 09:59:13;;;;;;;11.98;8.80;;;;;;;24.72;87.93;101635.31;5027499;28;20029;-81
2023/09/08 10:01:43;;;;;;;13.85;8.23;;;;;;;24.66;85.53;101644.94;5021875;28;20132;-81
2023/09/08 10:04:09;;;;;;;8.15;6.75;;;;;;;24.81;87.22;101640.34;5027389;28;20048;-81
2023/09/08 10:06:36;;;;;;;14.52;8.35;;;;;;;24.92;83.12;101635.09;5028377;28;20037;-82
2023/09/08 10:09:04;;;;;;;10.00;7.53;;;;;;;25.10;81.70;101627.94;5027130;28;20075;-81
2023/09/08 10:11:41;;;;;;;10.23;6.80;;;;;;;25.22;83.17;101641.47;5013383;28;20038;-82
2023/09/08 10:14:11;;;;;;;10.18;8.30;;;;;;;25.10;84.31;101633.66;5027918;28;20383;-81
2023/09/08 10:16:42;;;;;;;10.18;7.20;;;;;;;25.48;78.59;101641.38;5027516;28;20052;-81
2023/09/08 10:19:09;;;;;;;13.68;7.55;;;;;;;25.50;79.40;101627.38;5001505;28;20072;-80
2023/09/08 10:21:40;;;;;;;9.52;6.60;;;;;;;25.64;77.80;101637.56;5028921;28;20037;-80
2023/09/08 10:24:14;;;;;;;11.57;7.35;;;;;;;25.73;77.87;101641.28;5027305;28;20029;-80
2023/09/08 10:26:42;;;;;;;8.88;7.28;;;;;;;25.45;80.76;101634.53;5027043;28;20429;-81
2023/09/08 10:29:12;;;;;;;9.32;7.18;;;;;;;25.76;78.78;101623.16;5020038;28;20088;-80
2023/09/08 10:31:38;;;;;;;8.10;6.20;;;;;;;25.94;78.72;101628.22;5010411;28;20440;-80
2023/09/08 10:34:04;;;;;;;7.53;6.53;;;;;;;26.03;74.46;101627.50;5012051;28;20505;-80
2023/09/08 10:36:29;;;;;;;11.73;7.32;;;;;;;25.88;74.30;101630.06;5019151;28;20034;-80
2023/09/08 10:39:50;;;;;;;11.43;7.38;;;;;;;26.11;77.41;101630.91;5025759;28;20047;-80
2023/09/08 10:42:21;;;;;;;12.32;7.18;;;;;;;26.41;78.39;101626.41;4922602;29;20128;-82
2023/09/08 10:44:49;;;;;;;8.15;6.95;;;;;;;26.45;75.95;101627.06;4998947;28;20048;-86
2023/09/08 10:47:25;;;;;;;11.52;7.00;;;;;;;26.70;74.88;101628.97;5014588;28;20036;-86
2023/09/08 10:49:53;;;;;;;11.13;6.53;;;;;;;26.58;73.54;101623.34;5004999;28;20523;-85
2023/09/08 10:52:21;;;;;;;8.80;7.05;;;;;;;26.70;71.13;101617.47;5027916;28;20018;-87
2023/09/08 10:54:55;;;;;;;9.50;6.28;;;;;;;26.83;73.08;101631.72;5007416;28;20528;-81
2023/09/08 10:57:23;;;;;;;8.80;6.20;;;;;;;27.20;70.52;101634.69;5023351;28;20048;-81
2023/09/08 11:00:14;;;;;;;8.63;5.85;;;;;;;26.91;69.33;101635.88;5011040;28;20032;-81
2023/09/08 11:02:41;;;;;;;9.95;6.85;;;;;;;27.44;69.41;101643.50;5023091;28;20269;-80
2023/09/08 11:05:13;;;;;;;8.98;6.22;;;;;;;27.30;66.53;101644.13;5004583;28;20038;-80
2023/09/08 11:07:40;;;;;;;8.38;5.65;;;;;;;27.30;66.56;101644.13;5007836;28;20367;-81
2023/09/08 11:10:07;;;;;;;9.35;6.30;;;;;;;27.47;68.76;101631.06;5006365;28;20128;-81